createdAt,value
2018-11-05T00:00:28.217Z,0
2018-11-05T00:01:38.343Z,0
2018-11-05T00:02:47.641Z,0
2018-11-05T00:03:57.489Z,0
2018-11-05T00:05:07.666Z,0
2018-11-05T00:06:17.523Z,0
2018-11-05T00:07:27.654Z,0
2018-11-05T00:08:37.519Z,0
2018-11-05T00:09:47.369Z,0
2018-11-05T00:10:57.489Z,0
2018-11-05T00:12:07.658Z,0
2018-11-05T00:13:17.783Z,0
2018-11-05T00:14:27.636Z,0
2018-11-05T00:15:37.771Z,0
2018-11-05T00:16:47.916Z,0
2018-11-05T00:17:57.769Z,0
2018-11-05T00:19:07.646Z,0
2018-11-05T00:20:17.226Z,0
2018-11-05T00:21:27.092Z,0
2018-11-05T00:22:36.668Z,0
2018-11-05T00:23:46.244Z,0
2018-11-05T00:24:56.097Z,0
2018-11-05T00:26:05.671Z,0
2018-11-05T00:27:15.252Z,0
2018-11-05T00:28:25.105Z,0
2018-11-05T00:29:35.234Z,0
2018-11-05T00:30:45.365Z,0
2018-11-05T00:31:55.216Z,0
2018-11-05T00:33:05.340Z,0
2018-11-05T00:34:14.643Z,0
2018-11-05T00:35:24.781Z,0
2018-11-05T00:36:34.950Z,0
2018-11-05T00:37:45.086Z,0
2018-11-05T00:38:54.943Z,0
2018-11-05T00:40:04.522Z,0
2018-11-05T00:41:14.095Z,0
2018-11-05T00:42:23.951Z,0
2018-11-05T00:43:34.071Z,0
2018-11-05T00:44:43.923Z,0
2018-11-05T00:45:53.975Z,0
2018-11-05T00:47:03.832Z,0
2018-11-05T00:48:13.418Z,0
2018-11-05T00:49:23.555Z,0
2018-11-05T00:50:33.140Z,0
2018-11-05T00:51:43.009Z,0
2018-11-05T00:52:52.580Z,0
2018-11-05T00:54:02.434Z,0
2018-11-05T00:55:12.011Z,0
2018-11-05T00:56:21.035Z,0
2018-11-05T00:57:30.952Z,0
2018-11-05T00:58:41.132Z,0
2018-11-05T00:59:50.983Z,0
2018-11-05T01:01:01.121Z,0
2018-11-05T01:02:11.256Z,0
2018-11-05T01:03:20.850Z,0
2018-11-05T01:04:31.001Z,0
2018-11-05T01:05:40.853Z,0
2018-11-05T01:06:50.712Z,0
2018-11-05T01:08:00.568Z,0
2018-11-05T01:09:10.470Z,0
2018-11-05T01:10:20.595Z,0
2018-11-05T01:11:30.730Z,0
2018-11-05T01:12:40.030Z,0
2018-11-05T01:13:49.940Z,0
2018-11-05T01:15:00.066Z,0
2018-11-05T01:16:09.640Z,0
2018-11-05T01:17:19.760Z,0
2018-11-05T01:18:29.616Z,0
2018-11-05T01:19:39.191Z,0
2018-11-05T01:20:49.322Z,0
2018-11-05T01:21:59.174Z,0
2018-11-05T01:23:09.021Z,0
2018-11-05T01:24:18.600Z,0
2018-11-05T01:25:28.742Z,0
2018-11-05T01:26:38.601Z,0
2018-11-05T01:27:48.732Z,0
2018-11-05T01:28:58.867Z,0
2018-11-05T01:30:08.726Z,0
2018-11-05T01:31:18.854Z,0
2018-11-05T01:32:28.982Z,0
2018-11-05T01:33:39.107Z,0
2018-11-05T01:34:48.961Z,0
2018-11-05T01:35:58.820Z,0
2018-11-05T01:37:09.436Z,0
2018-11-05T01:38:19.226Z,0
2018-11-05T01:39:29.081Z,0
2018-11-05T01:40:38.654Z,0
2018-11-05T01:41:48.781Z,0
2018-11-05T01:42:58.632Z,0
2018-11-05T01:44:08.486Z,0
2018-11-05T01:45:18.061Z,0
2018-11-05T01:46:28.190Z,0
2018-11-05T01:47:38.372Z,0
2018-11-05T01:48:48.497Z,0
2018-11-05T01:49:58.348Z,0
2018-11-05T01:51:08.199Z,0
2018-11-05T01:52:18.045Z,0
2018-11-05T01:53:27.622Z,0
2018-11-05T01:54:37.750Z,0
2018-11-05T01:55:47.877Z,0
2018-11-05T01:56:57.999Z,0
2018-11-05T01:58:07.855Z,0
2018-11-05T01:59:17.708Z,0
2018-11-05T02:00:27.565Z,0
2018-11-05T02:01:37.184Z,0
2018-11-05T02:02:47.040Z,0
2018-11-05T02:03:56.889Z,0
2018-11-05T02:05:06.460Z,0
2018-11-05T02:06:16.599Z,0
2018-11-05T02:07:26.444Z,0
2018-11-05T02:08:36.567Z,0
2018-11-05T02:09:46.420Z,0
2018-11-05T02:10:55.992Z,0
2018-11-05T02:12:05.577Z,0
2018-11-05T02:13:15.609Z,0
2018-11-05T02:14:25.182Z,0
2018-11-05T02:15:35.312Z,0
2018-11-05T02:16:45.160Z,0
2018-11-05T02:17:55.285Z,0
2018-11-05T02:19:05.189Z,0
2018-11-05T02:20:14.770Z,0
2018-11-05T02:21:24.344Z,0
2018-11-05T02:22:34.196Z,0
2018-11-05T02:23:43.774Z,0
2018-11-05T02:24:53.918Z,0
2018-11-05T02:26:03.768Z,0
2018-11-05T02:27:14.270Z,0
2018-11-05T02:28:24.430Z,0
2018-11-05T02:29:34.278Z,0
2018-11-05T02:30:44.139Z,0
2018-11-05T02:31:54.288Z,0
2018-11-05T02:33:04.141Z,0
2018-11-05T02:34:13.996Z,0
2018-11-05T02:35:23.576Z,0
2018-11-05T02:36:33.157Z,0
2018-11-05T02:37:43.288Z,0
2018-11-05T02:38:53.427Z,0
2018-11-05T02:40:03.278Z,0
2018-11-05T02:41:13.405Z,0
2018-11-05T02:42:23.529Z,0
2018-11-05T02:43:33.111Z,0
2018-11-05T02:44:42.965Z,0
2018-11-05T02:45:52.558Z,0
2018-11-05T02:47:02.698Z,0
2018-11-05T02:48:12.824Z,0
2018-11-05T02:49:22.401Z,0
2018-11-05T02:50:32.537Z,0
2018-11-05T02:51:42.670Z,0
2018-11-05T02:52:52.820Z,0
2018-11-05T02:54:02.976Z,0
2018-11-05T02:55:13.118Z,0
2018-11-05T02:56:22.968Z,0
2018-11-05T02:57:33.092Z,0
2018-11-05T02:58:43.234Z,0
2018-11-05T02:59:53.088Z,0
2018-11-05T03:01:03.214Z,0
2018-11-05T03:02:13.068Z,0
2018-11-05T03:03:23.551Z,0
2018-11-05T03:04:33.811Z,0
2018-11-05T03:05:43.661Z,0
2018-11-05T03:06:53.513Z,0
2018-11-05T03:08:03.647Z,0
2018-11-05T03:09:13.516Z,0
2018-11-05T03:10:23.659Z,0
2018-11-05T03:11:33.839Z,0
2018-11-05T03:12:43.977Z,0
2018-11-05T03:13:54.103Z,0
2018-11-05T03:15:04.270Z,0
2018-11-05T03:16:14.117Z,0
2018-11-05T03:17:24.254Z,0
2018-11-05T03:18:34.108Z,0
2018-11-05T03:19:43.967Z,0
2018-11-05T03:20:54.094Z,0
2018-11-05T03:22:03.956Z,0
2018-11-05T03:23:13.816Z,0
2018-11-05T03:24:23.674Z,0
2018-11-05T03:25:33.525Z,0
2018-11-05T03:26:43.658Z,0
2018-11-05T03:27:53.530Z,0
2018-11-05T03:29:03.387Z,0
2018-11-05T03:30:13.266Z,0
2018-11-05T03:31:23.142Z,0
2018-11-05T03:32:32.447Z,0
2018-11-05T03:33:42.575Z,0
2018-11-05T03:34:52.435Z,0
2018-11-05T03:36:03.282Z,0
2018-11-05T03:37:13.480Z,0
2018-11-05T03:38:23.074Z,0
2018-11-05T03:39:33.212Z,0
2018-11-05T03:40:43.341Z,0
2018-11-05T03:41:52.934Z,0
2018-11-05T03:43:03.064Z,0
2018-11-05T03:44:13.192Z,0
2018-11-05T03:45:23.087Z,0
2018-11-05T03:46:33.236Z,0
2018-11-05T03:47:43.089Z,0
2018-11-05T03:48:52.954Z,0
2018-11-05T03:50:03.086Z,0
2018-11-05T03:51:13.230Z,0
2018-11-05T03:52:23.360Z,0
2018-11-05T03:53:33.489Z,0
2018-11-05T03:54:43.669Z,0
2018-11-05T03:55:54.305Z,0
2018-11-05T03:57:03.900Z,0
2018-11-05T03:58:13.810Z,0
2018-11-05T03:59:23.113Z,0
2018-11-05T04:00:33.262Z,0
2018-11-05T04:01:42.841Z,0
2018-11-05T04:02:52.425Z,0
2018-11-05T04:04:02.017Z,0
2018-11-05T04:05:11.890Z,0
2018-11-05T04:06:21.892Z,0
2018-11-05T04:07:32.019Z,0
2018-11-05T04:08:41.597Z,0
2018-11-05T04:09:51.735Z,0
2018-11-05T04:11:01.599Z,0
2018-11-05T04:12:11.184Z,0
2018-11-05T04:13:21.040Z,0
2018-11-05T04:14:30.906Z,0
2018-11-05T04:15:42.091Z,0
2018-11-05T04:16:52.325Z,0
2018-11-05T04:18:02.475Z,0
2018-11-05T04:19:12.051Z,0
2018-11-05T04:20:21.914Z,0
2018-11-05T04:21:31.764Z,0
2018-11-05T04:22:41.628Z,0
2018-11-05T04:23:51.203Z,0
2018-11-05T04:25:01.055Z,0
2018-11-05T04:26:10.905Z,0
2018-11-05T04:27:20.764Z,0
2018-11-05T04:28:30.905Z,0
2018-11-05T04:29:40.825Z,0
2018-11-05T04:30:50.959Z,0
2018-11-05T04:32:01.098Z,0
2018-11-05T04:33:11.271Z,0
2018-11-05T04:34:21.452Z,0
2018-11-05T04:35:31.591Z,0
2018-11-05T04:36:41.456Z,0
2018-11-05T04:37:51.584Z,0
2018-11-05T04:39:01.711Z,0
2018-11-05T04:40:11.019Z,0
2018-11-05T04:41:21.145Z,0
2018-11-05T04:42:31.279Z,0
2018-11-05T04:43:41.452Z,0
2018-11-05T04:44:51.575Z,0
2018-11-05T04:46:01.709Z,0
2018-11-05T04:47:11.564Z,0
2018-11-05T04:48:21.431Z,0
2018-11-05T04:49:31.013Z,0
2018-11-05T04:50:41.148Z,0
2018-11-05T04:51:51.276Z,0
2018-11-05T04:53:01.416Z,0
2018-11-05T04:54:11.543Z,0
2018-11-05T04:55:21.688Z,0
2018-11-05T04:56:31.814Z,0
2018-11-05T04:57:41.946Z,0
2018-11-05T04:58:51.525Z,0
2018-11-05T05:00:01.661Z,0
2018-11-05T05:01:10.968Z,0
2018-11-05T05:02:20.275Z,0
2018-11-05T05:03:30.616Z,0
2018-11-05T05:04:40.778Z,0
2018-11-05T05:05:50.907Z,0
2018-11-05T05:07:00.500Z,0
2018-11-05T05:08:10.076Z,0
2018-11-05T05:09:20.207Z,0
2018-11-05T05:10:30.339Z,0
2018-11-05T05:11:40.471Z,0
2018-11-05T05:12:50.597Z,0
2018-11-05T05:14:00.447Z,0
2018-11-05T05:15:10.309Z,0
2018-11-05T05:16:20.976Z,0
2018-11-05T05:17:31.142Z,0
2018-11-05T05:18:41.272Z,0
2018-11-05T05:19:51.125Z,0
2018-11-05T05:21:00.427Z,0
2018-11-05T05:22:10.551Z,0
2018-11-05T05:23:20.843Z,0
2018-11-05T05:24:30.974Z,0
2018-11-05T05:25:40.829Z,0
2018-11-05T05:26:50.697Z,0
2018-11-05T05:28:00.549Z,0
2018-11-05T05:29:10.398Z,0
2018-11-05T05:30:20.271Z,0
2018-11-05T05:31:30.396Z,0
2018-11-05T05:32:40.525Z,0
2018-11-05T05:33:50.402Z,0
2018-11-05T05:35:00.267Z,0
2018-11-05T05:36:10.391Z,0
2018-11-05T05:37:19.968Z,0
2018-11-05T05:38:30.098Z,0
2018-11-05T05:39:40.245Z,0
2018-11-05T05:40:50.056Z,0
2018-11-05T05:42:00.267Z,0
2018-11-05T05:43:10.118Z,0
2018-11-05T05:44:19.974Z,0
2018-11-05T05:45:30.099Z,0
2018-11-05T05:46:39.951Z,0
2018-11-05T05:47:50.098Z,0
2018-11-05T05:48:59.948Z,0
2018-11-05T05:50:10.207Z,0
2018-11-05T05:51:20.362Z,0
2018-11-05T05:52:30.213Z,0
2018-11-05T05:53:40.355Z,0
2018-11-05T05:54:50.472Z,0
2018-11-05T05:56:00.046Z,0
2018-11-05T05:57:10.168Z,0
2018-11-05T05:58:20.024Z,0
2018-11-05T05:59:29.887Z,0
2018-11-05T06:00:40.024Z,0
2018-11-05T06:01:49.888Z,0
2018-11-05T06:03:00.015Z,0
2018-11-05T06:04:09.880Z,0
2018-11-05T06:05:20.083Z,0
2018-11-05T06:06:30.613Z,0
2018-11-05T06:07:40.769Z,0
2018-11-05T06:08:50.625Z,0
2018-11-05T06:09:59.926Z,0
2018-11-05T06:11:09.506Z,0
2018-11-05T06:12:19.623Z,0
2018-11-05T06:13:29.750Z,0
2018-11-05T06:14:39.046Z,0
2018-11-05T06:15:49.232Z,0
2018-11-05T06:16:59.367Z,0
2018-11-05T06:18:09.212Z,0
2018-11-05T06:19:19.063Z,0
2018-11-05T06:20:28.911Z,0
2018-11-05T06:21:38.597Z,0
2018-11-05T06:22:48.734Z,0
2018-11-05T06:23:58.589Z,0
2018-11-05T06:25:08.473Z,0
2018-11-05T06:26:18.066Z,0
2018-11-05T06:27:27.916Z,0
2018-11-05T06:28:37.722Z,0
2018-11-05T06:29:47.638Z,0
2018-11-05T06:30:57.773Z,0
2018-11-05T06:32:07.905Z,0
2018-11-05T06:33:17.526Z,0
2018-11-05T06:34:27.205Z,0
2018-11-05T06:35:37.758Z,0
2018-11-05T06:36:47.609Z,0
2018-11-05T06:37:57.469Z,0
2018-11-05T06:39:07.041Z,0
2018-11-05T06:40:16.891Z,0
2018-11-05T06:41:48.118Z,0
2018-11-05T06:42:58.685Z,0
2018-11-05T06:44:09.008Z,0
2018-11-05T06:45:19.485Z,0
2018-11-05T06:46:29.319Z,0
2018-11-05T06:47:39.177Z,0
2018-11-05T06:48:48.853Z,0
2018-11-05T06:49:58.984Z,0
2018-11-05T06:51:08.552Z,5
2018-11-05T06:52:18.674Z,5
2018-11-05T06:53:28.529Z,5
2018-11-05T06:54:38.379Z,5
2018-11-05T06:55:48.227Z,5
2018-11-05T06:56:58.070Z,5
2018-11-05T06:58:07.931Z,5
2018-11-05T06:59:17.782Z,5
2018-11-05T07:00:27.919Z,5
2018-11-05T07:01:38.078Z,5
2018-11-05T07:02:48.006Z,5
2018-11-05T07:03:57.852Z,5
2018-11-05T07:05:07.711Z,5
2018-11-05T07:06:17.556Z,5
2018-11-05T07:07:27.422Z,5
2018-11-05T07:08:37.555Z,10
2018-11-05T07:09:47.951Z,10
2018-11-05T07:10:58.111Z,10
2018-11-05T07:12:08.250Z,10
2018-11-05T07:13:18.457Z,10
2018-11-05T07:14:28.594Z,10
2018-11-05T07:15:38.734Z,10
2018-11-05T07:16:48.592Z,15
2018-11-05T07:17:58.732Z,15
2018-11-05T07:19:10.970Z,15
2018-11-05T07:20:21.052Z,15
2018-11-05T07:21:31.175Z,15
2018-11-05T07:22:41.024Z,15
2018-11-05T07:23:51.146Z,20
2018-11-05T07:25:00.715Z,20
2018-11-05T07:26:10.853Z,20
2018-11-05T07:27:20.709Z,20
2018-11-05T07:28:30.839Z,25
2018-11-05T07:29:40.696Z,25
2018-11-05T07:30:50.543Z,25
2018-11-05T07:32:00.390Z,30
2018-11-05T07:33:09.810Z,30
2018-11-05T07:34:20.309Z,30
2018-11-05T07:35:30.440Z,35
2018-11-05T07:36:40.027Z,35
2018-11-05T07:37:50.154Z,40
2018-11-05T07:39:00.328Z,40
2018-11-05T07:40:10.179Z,40
2018-11-05T07:41:20.030Z,45
2018-11-05T07:42:30.162Z,50
2018-11-05T07:43:40.017Z,55
2018-11-05T07:44:50.142Z,65
2018-11-05T07:45:59.727Z,65
2018-11-05T07:47:09.575Z,70
2018-11-05T07:48:19.698Z,70
2018-11-05T07:49:29.550Z,70
2018-11-05T07:50:39.424Z,75
2018-11-05T07:51:49.615Z,80
2018-11-05T07:52:59.741Z,85
2018-11-05T07:54:09.635Z,85
2018-11-05T07:55:19.763Z,85
2018-11-05T07:56:30.292Z,85
2018-11-05T07:57:40.149Z,95
2018-11-05T07:58:49.720Z,95
2018-11-05T07:59:59.867Z,105
2018-11-05T08:01:09.462Z,95
2018-11-05T08:02:19.638Z,100
2018-11-05T08:03:28.664Z,100
2018-11-05T08:04:38.236Z,95
2018-11-05T08:05:47.811Z,90
2018-11-05T08:06:57.935Z,90
2018-11-05T08:08:07.921Z,90
2018-11-05T08:09:17.498Z,95
2018-11-05T08:10:27.072Z,95
2018-11-05T08:11:37.196Z,95
2018-11-05T08:12:47.051Z,95
2018-11-05T08:13:56.686Z,95
2018-11-05T08:15:06.539Z,95
2018-11-05T08:16:16.418Z,95
2018-11-05T08:17:26.268Z,95
2018-11-05T08:18:35.843Z,90
2018-11-05T08:19:45.750Z,85
2018-11-05T08:20:55.880Z,80
2018-11-05T08:22:05.741Z,75
2018-11-05T08:23:15.594Z,75
2018-11-05T08:24:25.716Z,75
2018-11-05T08:25:35.917Z,75
2018-11-05T08:26:45.495Z,80
2018-11-05T08:27:55.624Z,85
2018-11-05T08:29:05.756Z,85
2018-11-05T08:30:15.623Z,90
2018-11-05T08:31:25.793Z,100
2018-11-05T08:32:35.368Z,110
2018-11-05T08:33:45.223Z,120
2018-11-05T08:34:55.118Z,125
2018-11-05T08:36:04.429Z,130
2018-11-05T08:37:14.622Z,130
2018-11-05T08:38:24.488Z,125
2018-11-05T08:39:34.361Z,130
2018-11-05T08:40:44.513Z,130
2018-11-05T08:41:54.663Z,135
2018-11-05T08:43:04.835Z,135
2018-11-05T08:44:14.419Z,140
2018-11-05T08:45:24.610Z,135
2018-11-05T08:46:34.787Z,140
2018-11-05T08:47:44.910Z,140
2018-11-05T08:48:55.083Z,140
2018-11-05T08:50:04.487Z,135
2018-11-05T08:51:16.177Z,140
2018-11-05T08:52:26.259Z,135
2018-11-05T08:53:36.104Z,135
2018-11-05T08:54:45.734Z,135
2018-11-05T08:55:55.874Z,130
2018-11-05T08:57:05.998Z,130
2018-11-05T08:58:15.852Z,140
2018-11-05T08:59:25.973Z,145
2018-11-05T09:00:35.827Z,140
2018-11-05T09:01:45.401Z,145
2018-11-05T09:02:55.021Z,150
2018-11-05T09:04:04.872Z,160
2018-11-05T09:05:15.478Z,170
2018-11-05T09:06:25.777Z,180
2018-11-05T09:07:35.906Z,190
2018-11-05T09:08:45.483Z,195
2018-11-05T09:09:56.375Z,195
2018-11-05T09:11:09.812Z,190
2018-11-05T09:12:20.709Z,190
2018-11-05T09:13:30.838Z,190
2018-11-05T09:14:40.698Z,190
2018-11-05T09:15:50.549Z,185
2018-11-05T09:17:00.697Z,185
2018-11-05T09:18:10.552Z,185
2018-11-05T09:19:20.533Z,185
2018-11-05T09:20:30.668Z,185
2018-11-05T09:21:40.524Z,185
2018-11-05T09:22:50.371Z,185
2018-11-05T09:24:00.554Z,180
2018-11-05T09:25:10.406Z,180
2018-11-05T09:26:20.278Z,175
2018-11-05T09:27:30.129Z,175
2018-11-05T09:28:39.976Z,170
2018-11-05T09:29:49.328Z,160
2018-11-05T09:30:59.458Z,160
2018-11-05T09:32:09.591Z,160
2018-11-05T09:33:19.724Z,160
2018-11-05T09:34:29.576Z,165
2018-11-05T09:35:38.924Z,165
2018-11-05T09:36:48.772Z,160
2018-11-05T09:37:58.903Z,160
2018-11-05T09:39:08.476Z,160
2018-11-05T09:40:18.607Z,165
2018-11-05T09:41:28.838Z,170
2018-11-05T09:42:38.828Z,170
2018-11-05T09:43:48.956Z,165
2018-11-05T09:44:58.805Z,165
2018-11-05T09:46:08.654Z,160
2018-11-05T09:47:18.505Z,160
2018-11-05T09:48:28.363Z,155
2018-11-05T09:49:38.757Z,150
2018-11-05T09:50:49.467Z,150
2018-11-05T09:51:59.417Z,145
2018-11-05T09:53:09.325Z,140
2018-11-05T09:54:19.179Z,145
2018-11-05T09:55:29.456Z,145
2018-11-05T09:56:39.586Z,150
2018-11-05T09:57:49.754Z,150
2018-11-05T09:58:59.693Z,145
2018-11-05T10:00:09.551Z,145
2018-11-05T10:01:19.678Z,140
2018-11-05T10:02:29.254Z,135
2018-11-05T10:03:40.574Z,135
2018-11-05T10:04:52.998Z,135
2018-11-05T10:06:03.224Z,140
2018-11-05T10:07:13.078Z,140
2018-11-05T10:08:23.260Z,130
2018-11-05T10:09:33.002Z,130
2018-11-05T10:10:43.184Z,135
2018-11-05T10:11:53.310Z,135
2018-11-05T10:13:03.168Z,140
2018-11-05T10:14:13.304Z,145
2018-11-05T10:15:23.160Z,150
2018-11-05T10:16:33.598Z,160
2018-11-05T10:17:43.174Z,170
2018-11-05T10:18:53.305Z,165
2018-11-05T10:20:03.157Z,170
2018-11-05T10:21:12.471Z,175
2018-11-05T10:22:22.651Z,185
2018-11-05T10:23:32.231Z,180
2018-11-05T10:24:42.884Z,185
2018-11-05T10:25:52.498Z,180
2018-11-05T10:27:02.639Z,180
2018-11-05T10:28:12.770Z,185
2018-11-05T10:29:22.905Z,185
2018-11-05T10:30:33.062Z,175
2018-11-05T10:31:42.910Z,175
2018-11-05T10:32:52.617Z,180
2018-11-05T10:34:02.900Z,175
2018-11-05T10:35:12.488Z,175
2018-11-05T10:36:22.341Z,170
2018-11-05T10:37:31.916Z,165
2018-11-05T10:38:41.975Z,160
2018-11-05T10:39:51.982Z,155
2018-11-05T10:41:02.113Z,160
2018-11-05T10:42:12.248Z,160
2018-11-05T10:43:22.376Z,155
2018-11-05T10:44:31.974Z,145
2018-11-05T10:45:42.153Z,150
2018-11-05T10:46:52.280Z,155
2018-11-05T10:48:02.148Z,160
2018-11-05T10:49:11.729Z,160
2018-11-05T10:50:22.157Z,160
2018-11-05T10:51:33.072Z,165
2018-11-05T10:52:42.992Z,180
2018-11-05T10:53:52.849Z,195
2018-11-05T10:55:02.975Z,195
2018-11-05T10:56:12.554Z,190
2018-11-05T10:57:22.733Z,190
2018-11-05T10:58:32.790Z,195
2018-11-05T10:59:42.649Z,195
2018-11-05T11:00:52.780Z,200
2018-11-05T11:02:02.084Z,190
2018-11-05T11:03:11.716Z,190
2018-11-05T11:04:21.971Z,195
2018-11-05T11:05:32.171Z,200
2018-11-05T11:06:41.751Z,205
2018-11-05T11:07:51.929Z,200
2018-11-05T11:09:02.060Z,210
2018-11-05T11:10:11.917Z,210
2018-11-05T11:11:22.049Z,210
2018-11-05T11:12:32.205Z,205
2018-11-05T11:13:42.054Z,210
2018-11-05T11:14:52.248Z,220
2018-11-05T11:16:02.110Z,240
2018-11-05T11:17:11.686Z,240
2018-11-05T11:18:21.547Z,240
2018-11-05T11:19:31.677Z,245
2018-11-05T11:20:41.582Z,250
2018-11-05T11:21:51.766Z,255
2018-11-05T11:23:01.911Z,245
2018-11-05T11:24:11.762Z,240
2018-11-05T11:25:21.887Z,225
2018-11-05T11:26:31.243Z,225
2018-11-05T11:27:41.472Z,235
2018-11-05T11:28:51.577Z,250
2018-11-05T11:30:01.467Z,250
2018-11-05T11:31:11.327Z,245
2018-11-05T11:32:21.501Z,235
2018-11-05T11:33:31.356Z,235
2018-11-05T11:34:40.666Z,220
2018-11-05T11:35:50.800Z,205
2018-11-05T11:37:00.889Z,210
2018-11-05T11:38:10.864Z,215
2018-11-05T11:39:20.997Z,215
2018-11-05T11:40:30.850Z,200
2018-11-05T11:41:40.433Z,185
2018-11-05T11:42:50.287Z,175
2018-11-05T11:44:00.612Z,170
2018-11-05T11:45:10.372Z,175
2018-11-05T11:46:20.229Z,195
2018-11-05T11:47:30.083Z,195
2018-11-05T11:48:39.944Z,185
2018-11-05T11:49:50.134Z,170
2018-11-05T11:50:59.983Z,160
2018-11-05T11:52:10.116Z,135
2018-11-05T11:53:21.073Z,135
2018-11-05T11:54:31.327Z,130
2018-11-05T11:55:41.615Z,135
2018-11-05T11:56:51.204Z,135
2018-11-05T11:58:01.064Z,135
2018-11-05T11:59:11.207Z,135
2018-11-05T12:00:20.911Z,140
2018-11-05T12:01:31.173Z,135
2018-11-05T12:02:41.318Z,120
2018-11-05T12:03:51.228Z,110
2018-11-05T12:05:01.921Z,120
2018-11-05T12:06:11.132Z,115
2018-11-05T12:07:20.770Z,115
2018-11-05T12:08:30.908Z,110
2018-11-05T12:09:40.763Z,110
2018-11-05T12:10:50.906Z,110
2018-11-05T12:12:00.764Z,105
2018-11-05T12:13:10.387Z,110
2018-11-05T12:14:20.620Z,110
2018-11-05T12:15:30.780Z,105
2018-11-05T12:16:40.913Z,105
2018-11-05T12:17:51.046Z,95
2018-11-05T12:19:00.951Z,95
2018-11-05T12:20:10.535Z,95
2018-11-05T12:21:20.118Z,95
2018-11-05T12:22:30.248Z,90
2018-11-05T12:23:40.376Z,90
2018-11-05T12:24:49.792Z,90
2018-11-05T12:25:59.712Z,95
2018-11-05T12:27:09.576Z,85
2018-11-05T12:28:19.432Z,85
2018-11-05T12:29:29.292Z,80
2018-11-05T12:30:39.196Z,85
2018-11-05T12:31:49.328Z,85
2018-11-05T12:32:59.189Z,85
2018-11-05T12:34:09.038Z,90
2018-11-05T12:35:19.165Z,90
2018-11-05T12:36:29.357Z,85
2018-11-05T12:37:38.935Z,75
2018-11-05T12:38:49.139Z,70
2018-11-05T12:39:59.025Z,70
2018-11-05T12:41:08.894Z,70
2018-11-05T12:42:18.812Z,65
2018-11-05T12:43:28.942Z,65
2018-11-05T12:44:39.777Z,65
2018-11-05T12:45:49.947Z,65
2018-11-05T12:46:59.530Z,65
2018-11-05T12:48:09.213Z,65
2018-11-05T12:49:19.340Z,70
2018-11-05T12:50:29.296Z,70
2018-11-05T12:51:39.103Z,70
2018-11-05T12:52:49.235Z,70
2018-11-05T12:53:59.414Z,65
2018-11-05T12:55:09.552Z,65
2018-11-05T12:56:19.682Z,65
2018-11-05T12:57:29.817Z,70
2018-11-05T12:58:39.683Z,80
2018-11-05T12:59:49.583Z,85
2018-11-05T13:00:59.287Z,85
2018-11-05T13:02:09.202Z,80
2018-11-05T13:03:19.325Z,70
2018-11-05T13:04:29.234Z,70
2018-11-05T13:05:38.582Z,80
2018-11-05T13:06:48.807Z,80
2018-11-05T13:07:59.013Z,85
2018-11-05T13:09:08.861Z,85
2018-11-05T13:10:18.708Z,75
2018-11-05T13:11:28.338Z,70
2018-11-05T13:12:38.187Z,70
2018-11-05T13:13:48.312Z,65
2018-11-05T13:14:57.344Z,70
2018-11-05T13:16:07.207Z,70
2018-11-05T13:17:17.109Z,65
2018-11-05T13:18:26.957Z,65
2018-11-05T13:19:37.081Z,65
2018-11-05T13:20:46.941Z,60
2018-11-05T13:21:56.250Z,55
2018-11-05T13:23:06.151Z,50
2018-11-05T13:24:16.235Z,50
2018-11-05T13:25:26.127Z,50
2018-11-05T13:26:36.254Z,45
2018-11-05T13:27:46.549Z,45
2018-11-05T13:28:56.832Z,40
2018-11-05T13:30:06.980Z,40
2018-11-05T13:31:17.111Z,35
2018-11-05T13:32:27.258Z,35
2018-11-05T13:33:37.386Z,35
2018-11-05T13:34:47.290Z,30
2018-11-05T13:35:57.423Z,30
2018-11-05T13:37:07.692Z,25
2018-11-05T13:38:21.228Z,20
2018-11-05T13:39:30.891Z,15
2018-11-05T13:40:40.795Z,15
2018-11-05T13:41:50.374Z,20
2018-11-05T13:43:00.507Z,25
2018-11-05T13:44:10.359Z,20
2018-11-05T13:45:20.959Z,20
2018-11-05T13:46:33.470Z,20
2018-11-05T13:47:49.325Z,20
2018-11-05T13:49:04.977Z,25
2018-11-05T13:50:16.654Z,30
2018-11-05T13:51:27.140Z,30
2018-11-05T13:52:37.965Z,30
2018-11-05T13:53:47.140Z,30
2018-11-05T13:54:59.380Z,35
2018-11-05T13:56:09.773Z,35
2018-11-05T13:57:19.729Z,35
2018-11-05T13:58:29.923Z,35
2018-11-05T13:59:39.785Z,35
2018-11-05T14:00:49.644Z,35
2018-11-05T14:01:59.776Z,35
2018-11-05T14:03:09.696Z,40
2018-11-05T14:04:19.820Z,40
2018-11-05T14:05:30.054Z,45
2018-11-05T14:06:40.186Z,50
2018-11-05T14:07:50.322Z,50
2018-11-05T14:08:59.955Z,50
2018-11-05T14:10:09.816Z,50
2018-11-05T14:11:19.941Z,45
2018-11-05T14:12:30.111Z,45
2018-11-05T14:13:39.972Z,45
2018-11-05T14:14:50.198Z,40
2018-11-05T14:16:00.049Z,35
2018-11-05T14:17:09.357Z,35
2018-11-05T14:18:19.571Z,30
2018-11-05T14:19:29.431Z,30
2018-11-05T14:20:39.341Z,25
2018-11-05T14:21:49.186Z,30
2018-11-05T14:22:59.319Z,30
2018-11-05T14:24:09.450Z,25
2018-11-05T14:25:19.749Z,25
2018-11-05T14:26:29.329Z,25
2018-11-05T14:27:40.375Z,20
2018-11-05T14:28:52.842Z,20
2018-11-05T14:30:06.490Z,20
2018-11-05T14:31:16.763Z,20
2018-11-05T14:32:27.320Z,15
2018-11-05T14:33:37.191Z,15
2018-11-05T14:34:47.316Z,15
2018-11-05T14:35:57.727Z,10
2018-11-05T14:37:08.186Z,10
2018-11-05T14:38:18.317Z,10
2018-11-05T14:39:28.462Z,10
2018-11-05T14:40:38.321Z,10
2018-11-05T14:41:48.217Z,10
2018-11-05T14:42:58.456Z,5
2018-11-05T14:44:08.486Z,5
2018-11-05T14:45:18.352Z,5
2018-11-05T14:46:28.212Z,5
2018-11-05T14:47:38.072Z,5
2018-11-05T14:48:48.784Z,5
2018-11-05T14:49:58.961Z,5
2018-11-05T14:51:09.196Z,5
2018-11-05T14:52:19.418Z,5
2018-11-05T14:53:29.547Z,5
2018-11-05T14:54:39.393Z,5
2018-11-05T14:55:48.751Z,0
2018-11-05T14:56:58.895Z,0
2018-11-05T14:58:08.478Z,0
2018-11-05T14:59:17.520Z,0
2018-11-05T15:00:27.378Z,0
2018-11-05T15:01:37.338Z,0
2018-11-05T15:02:47.127Z,0
2018-11-05T15:03:57.057Z,0
2018-11-05T15:05:06.913Z,0
2018-11-05T15:06:16.766Z,0
2018-11-05T15:07:26.731Z,0
2018-11-05T15:08:35.998Z,0
2018-11-05T15:09:46.125Z,0
2018-11-05T15:10:56.252Z,0
2018-11-05T15:12:06.104Z,0
2018-11-05T15:13:16.677Z,0
2018-11-05T15:14:26.800Z,0
2018-11-05T15:15:36.933Z,0
2018-11-05T15:16:46.790Z,0
2018-11-05T15:17:56.641Z,0
2018-11-05T15:19:09.995Z,0
2018-11-05T15:20:21.139Z,0
2018-11-05T15:21:31.358Z,0
2018-11-05T15:22:41.219Z,0
2018-11-05T15:23:51.083Z,0
2018-11-05T15:25:00.710Z,0
2018-11-05T15:26:10.765Z,0
2018-11-05T15:27:21.035Z,0
2018-11-05T15:28:31.170Z,0
2018-11-05T15:29:41.352Z,0
2018-11-05T15:30:51.258Z,0
2018-11-05T15:32:01.118Z,0
2018-11-05T15:33:11.711Z,0
2018-11-05T15:34:21.927Z,0
2018-11-05T15:35:32.112Z,0
2018-11-05T15:36:42.066Z,0
2018-11-05T15:37:51.654Z,0
2018-11-05T15:39:01.782Z,0
2018-11-05T15:40:11.918Z,0
2018-11-05T15:41:20.954Z,0
2018-11-05T15:42:33.083Z,0
2018-11-05T15:43:42.945Z,0
2018-11-05T15:44:52.835Z,0
2018-11-05T15:46:02.697Z,0
2018-11-05T15:47:12.270Z,0
2018-11-05T15:48:22.451Z,0
2018-11-05T15:49:32.031Z,0
2018-11-05T15:50:42.156Z,0
2018-11-05T15:51:53.614Z,0
2018-11-05T15:53:06.950Z,0
2018-11-05T15:54:18.281Z,0
2018-11-05T15:55:28.520Z,0
2018-11-05T15:56:37.833Z,0
2018-11-05T15:57:47.410Z,0
2018-11-05T15:58:57.537Z,0
2018-11-05T16:00:07.445Z,0
2018-11-05T16:01:17.632Z,0
2018-11-05T16:02:27.225Z,0
2018-11-05T16:03:37.355Z,0
2018-11-05T16:04:47.481Z,0
2018-11-05T16:05:57.664Z,0
2018-11-05T16:07:07.791Z,0
2018-11-05T16:08:17.676Z,0
2018-11-05T16:09:28.402Z,0
2018-11-05T16:10:37.774Z,0
2018-11-05T16:11:47.682Z,0
2018-11-05T16:12:57.536Z,0
2018-11-05T16:14:07.389Z,0
2018-11-05T16:15:17.538Z,0
2018-11-05T16:16:27.388Z,0
2018-11-05T16:17:37.018Z,0
2018-11-05T16:18:46.591Z,0
2018-11-05T16:19:56.714Z,0
2018-11-05T16:21:06.564Z,0
2018-11-05T16:22:16.412Z,0
2018-11-05T16:23:26.313Z,0
2018-11-05T16:24:36.695Z,0
2018-11-05T16:25:46.603Z,0
2018-11-05T16:26:56.404Z,0
2018-11-05T16:28:06.258Z,0
2018-11-05T16:29:16.204Z,0
2018-11-05T16:30:26.289Z,0
2018-11-05T16:31:36.101Z,0
2018-11-05T16:32:46.222Z,0
2018-11-05T16:33:56.086Z,0
2018-11-05T16:35:06.613Z,0
2018-11-05T16:36:16.280Z,0
2018-11-05T16:37:26.401Z,0
2018-11-05T16:38:36.848Z,0
2018-11-05T16:39:46.959Z,0
2018-11-05T16:40:56.950Z,0
2018-11-05T16:42:06.532Z,0
2018-11-05T16:43:16.390Z,0
2018-11-05T16:44:26.514Z,0
2018-11-05T16:45:36.682Z,0
2018-11-05T16:46:46.589Z,0
2018-11-05T16:47:56.717Z,0
2018-11-05T16:49:06.295Z,0
2018-11-05T16:50:16.419Z,0